ICT,Max TemperatureF,Mean TemperatureF,Min TemperatureF,Max Dew PointF,MeanDew PointF,Min DewpointF,Max Humidity, Mean Humidity, Min Humidity, Max Sea Level PressureIn, Mean Sea Level PressureIn, Min Sea Level PressureIn, Max VisibilityMiles, Mean VisibilityMiles, Min VisibilityMiles, Max Wind SpeedMPH, Mean Wind SpeedMPH, Max Gust SpeedMPH,PrecipitationIn, CloudCover, Events, WindDirDegrees
2012-10-1,91,84,77,79,74,72,95,73,52,29.95,29.87,29.80,6,5,2,9,4,,0.20,6,Rain-Thunderstorm,199
2012-10-2,90,84,77,76,74,72,89,76,53,29.92,29.86,29.80,6,5,2,12,5,,0.01,6,Rain-Thunderstorm,201
2012-10-3,93,83,73,77,74,70,89,73,49,29.86,29.81,29.71,7,6,2,16,5,30,0.12,6,Rain-Thunderstorm,227
2012-10-4,92,84,75,78,73,68,90,71,44,29.83,29.77,29.68,7,6,2,15,5,26,0.08,5,Rain-Thunderstorm,245
2012-10-5,93,86,78,78,73,70,83,69,49,29.86,29.78,29.71,6,6,3,17,6,29,0.59,6,Rain-Thunderstorm,224
2012-10-6,87,82,77,79,74,72,89,76,66,29.89,29.82,29.74,6,6,4,12,5,,0.43,6,Rain,315
2012-10-7,89,84,78,78,72,70,92,71,55,29.86,29.81,29.74,6,6,4,13,7,,0.39,6,Rain,1
2012-10-8,87,80,74,76,73,70,99,82,64,29.83,29.76,29.68,6,5,2,16,10,25,0.39,6,Rain,56
2012-10-9,90,83,76,78,74,73,90,81,61,29.89,29.81,29.74,7,6,3,14,6,,2.17,6,Rain-Thunderstorm,118
2012-10-10,92,84,76,79,74,72,90,75,55,29.92,29.85,29.77,7,6,4,13,5,,0.39,6,Rain-Thunderstorm,26
2012-10-11,91,84,76,78,74,72,89,73,55,29.92,29.84,29.77,6,6,3,12,4,,0.02,5,,324
2012-10-12,92,84,77,78,73,70,92,67,49,29.92,29.83,29.77,6,6,4,9,5,,0.02,5,Rain-Thunderstorm,133
2012-10-13,92,85,78,79,74,72,84,67,52,29.89,29.82,29.74,6,4,2,12,5,,0.00,6,,195
2012-10-14,90,84,77,77,73,66,83,70,55,29.92,29.84,29.77,6,5,2,31,6,50,0.00,6,Rain-Thunderstorm,185
2012-10-15,88,83,78,78,74,72,89,77,59,29.98,29.89,29.83,6,5,3,14,4,,1.54,6,Rain-Thunderstorm,61
2012-10-16,91,84,78,78,75,72,93,77,50,29.95,29.89,29.80,6,4,1,9,3,,0.00,6,Rain-Thunderstorm,278
2012-10-17,90,84,78,78,74,68,87,72,46,29.95,29.86,29.77,6,5,2,14,4,,0.00,6,,54
2012-10-18,94,86,77,77,70,66,94,62,39,29.95,29.88,29.83,7,6,4,14,5,23,0.00,3,,68
2012-10-19,94,85,76,73,70,64,84,61,40,29.95,29.88,29.83,6,6,5,10,4,20,0.00,3,,84
2012-10-20,95,86,78,75,71,66,83,61,39,29.92,29.86,29.80,6,6,5,10,5,,0.00,3,,65
2012-10-21,95,87,79,77,72,68,84,63,41,29.92,29.86,29.80,6,6,5,13,5,26,0.00,6,Rain,69
2012-10-22,95,87,79,77,71,66,84,63,41,29.92,29.84,29.77,6,6,4,12,5,23,0.00,6,,39
2012-10-23,91,85,79,75,70,68,74,60,49,29.89,29.82,29.74,7,6,5,13,7,22,0.00,6,,55
2012-10-24,92,84,77,76,73,72,89,72,54,29.86,29.81,29.74,7,6,5,18,5,30,0.03,6,Rain-Thunderstorm,79
2012-10-25,94,86,77,77,73,70,89,69,46,29.89,29.80,29.71,7,6,2,13,5,26,0.00,4,Rain-Thunderstorm,23
2012-10-26,96,88,79,77,72,66,89,65,41,29.83,29.77,29.70,6,6,4,9,4,21,0.00,4,Rain-Thunderstorm,36
2012-10-27,95,86,78,75,70,64,85,58,41,29.83,29.77,29.71,7,6,5,14,6,24,0.00,3,,56
2012-10-28,96,88,79,76,71,66,79,61,33,29.86,29.78,29.70,7,6,6,8,4,,0.00,3,,68
2012-10-29,94,86,79,78,75,70,87,68,46,29.86,29.79,29.71,7,6,3,9,5,,0.43,6,Rain,185
2012-10-30,93,86,78,77,72,68,88,66,47,29.86,29.78,29.68,6,6,5,23,6,24,0.79,5,Rain-Thunderstorm,187
2012-10-31,89,83,77,77,74,72,90,78,55,29.92,29.84,29.77,6,6,2,12,5,15,0.43,6,Rain-Thunderstorm,7